Time;durP1;ratioP1;P1;durP2;ratioP2;P2;SDS_P1;SDS_P2;PMS_P1;PMS_P2;Temp;Humidity;BMP_temperature;BMP_pressure;BME280_temperature;BME280_humidity;BME280_pressure;Samples;Min_cycle;Max_cycle;Signal;HPM_P1;HPM_P2
2023/04/01 02:01:20;;;;;;;7.60;7.20;;;8.50;99.90;;;;;;5657985;23;20225;-76
2023/04/01 02:03:48;;;;;;;8.03;7.60;;;8.60;99.90;;;;;;4953823;28;20692;-75
2023/04/01 02:06:18;;;;;;;7.80;7.40;;;8.60;99.90;;;;;;4953446;28;20802;-76
2023/04/01 02:08:48;;;;;;;7.97;7.57;;;8.60;99.90;;;;;;4954272;28;20225;-76
2023/04/01 02:11:18;;;;;;;7.80;7.40;;;8.60;99.90;;;;;;4950629;28;20233;-77
2023/04/01 02:13:52;;;;;;;7.40;7.00;;;8.60;99.90;;;;;;4947741;29;20285;-75
2023/04/01 02:16:25;;;;;;;7.80;7.30;;;8.60;99.90;;;;;;4945445;29;20266;-76
2023/04/01 02:18:57;;;;;;;7.50;7.10;;;8.60;99.90;;;;;;4944114;29;20294;-77
2023/04/01 02:21:28;;;;;;;7.43;7.07;;;8.60;99.90;;;;;;4950864;29;20230;-77
2023/04/01 02:23:57;;;;;;;7.83;7.40;;;8.60;99.90;;;;;;4947678;29;20580;-76
2023/04/01 02:26:26;;;;;;;7.90;7.40;;;8.60;99.90;;;;;;4941297;29;20194;-76
2023/04/01 02:28:54;;;;;;;8.10;7.60;;;8.50;99.90;;;;;;4939166;29;20665;-77
2023/04/01 02:31:23;;;;;;;7.50;7.10;;;8.50;99.90;;;;;;4937298;28;20701;-76
2023/04/01 02:33:50;;;;;;;7.67;7.27;;;8.50;99.90;;;;;;4944908;29;20222;-75
2023/04/01 02:36:18;;;;;;;7.63;7.17;;;8.40;99.90;;;;;;4945132;28;20257;-76
2023/04/01 02:38:47;;;;;;;7.60;7.20;;;8.40;99.90;;;;;;4943020;29;20240;-76
2023/04/01 02:41:14;;;;;;;7.00;6.70;;;8.40;99.90;;;;;;4948732;29;20716;-76
2023/04/01 02:43:41;;;;;;;6.80;6.50;;;8.40;99.90;;;;;;4943209;29;20198;-76
2023/04/01 02:46:08;;;;;;;7.00;6.70;;;8.40;99.90;;;;;;4936009;29;20210;-76
2023/04/01 02:48:36;;;;;;;7.50;7.10;;;8.30;99.90;;;;;;4945040;29;20210;-76
2023/04/01 02:51:03;;;;;;;7.07;6.77;;;8.40;99.90;;;;;;4948523;29;20278;-76
2023/04/01 02:53:30;;;;;;;7.60;7.20;;;8.30;99.90;;;;;;4949047;28;20205;-75
2023/04/01 02:55:57;;;;;;;7.47;7.07;;;8.30;99.90;;;;;;4943715;29;20226;-75
2023/04/01 02:58:24;;;;;;;7.67;7.27;;;8.30;99.90;;;;;;4941652;29;20269;-76
2023/04/01 03:00:51;;;;;;;7.93;7.50;;;8.20;99.90;;;;;;4941465;29;20223;-76
2023/04/01 03:03:18;;;;;;;7.80;7.30;;;8.10;99.90;;;;;;4947504;29;20206;-75
2023/04/01 03:05:46;;;;;;;8.20;7.80;;;8.00;99.90;;;;;;4940974;29;20198;-75
2023/04/01 03:08:13;;;;;;;8.40;8.00;;;8.00;99.90;;;;;;4951886;29;20214;-74
2023/04/01 03:10:40;;;;;;;8.30;7.80;;;7.90;99.90;;;;;;4943338;29;20596;-75
2023/04/01 03:13:07;;;;;;;8.10;7.60;;;7.80;99.90;;;;;;4942828;29;20198;-76
2023/04/01 03:15:34;;;;;;;8.10;7.60;;;7.80;99.90;;;;;;4948733;28;20658;-75
2023/04/01 03:18:01;;;;;;;8.30;7.80;;;7.70;99.90;;;;;;4939194;29;20674;-75
2023/04/01 03:20:28;;;;;;;8.10;7.70;;;7.70;99.90;;;;;;4947014;28;20318;-75
2023/04/01 03:22:56;;;;;;;8.20;7.80;;;7.60;99.90;;;;;;4939908;29;20636;-81
2023/04/01 03:25:23;;;;;;;8.20;7.80;;;7.60;99.90;;;;;;4940947;29;20293;-77
2023/04/01 03:27:51;;;;;;;8.40;8.00;;;7.50;99.90;;;;;;4940358;29;20290;-77
2023/04/01 03:30:18;;;;;;;8.80;8.30;;;7.50;99.90;;;;;;4926341;29;20298;-76
2023/04/01 03:32:50;;;;;;;8.40;8.00;;;7.50;99.90;;;;;;4929475;29;20726;-77
2023/04/01 03:35:17;;;;;;;8.63;8.13;;;7.50;99.90;;;;;;4926360;29;20219;-77
2023/04/01 03:37:46;;;;;;;7.70;7.30;;;7.50;99.90;;;;;;4925859;29;20199;-77
2023/04/01 03:40:14;;;;;;;8.30;7.90;;;7.40;99.90;;;;;;4934419;29;20202;-77
2023/04/01 03:42:41;;;;;;;8.40;8.00;;;7.40;99.90;;;;;;4935966;29;20232;-77
2023/04/01 03:45:09;;;;;;;8.43;8.03;;;7.40;99.90;;;;;;4930241;29;20205;-76
2023/04/01 03:47:36;;;;;;;7.87;7.47;;;7.30;99.90;;;;;;4945894;29;20226;-77
2023/04/01 03:50:03;;;;;;;8.10;7.70;;;7.30;99.90;;;;;;4944743;29;20622;-76
2023/04/01 03:52:30;;;;;;;7.93;7.50;;;7.20;99.90;;;;;;4946252;29;20226;-76
2023/04/01 03:54:57;;;;;;;8.13;7.70;;;7.20;99.90;;;;;;4948720;29;20201;-77
2023/04/01 03:57:26;;;;;;;8.40;8.00;;;7.20;99.90;;;;;;4941861;29;20209;-77
2023/04/01 03:59:54;;;;;;;8.70;8.30;;;7.10;99.90;;;;;;4946850;29;20206;-77
2023/04/01 04:02:21;;;;;;;8.90;8.40;;;7.10;99.90;;;;;;4949641;29;20237;-77
2023/04/01 04:04:48;;;;;;;8.40;8.00;;;7.10;99.90;;;;;;4943501;29;20221;-76
2023/04/01 04:07:15;;;;;;;8.40;7.90;;;7.10;99.90;;;;;;4923420;28;20199;-77
2023/04/01 04:10:14;;;;;;;8.20;7.80;;;7.10;99.90;;;;;;4936416;28;20202;-79
2023/04/01 04:12:42;;;;;;;7.70;7.30;;;7.10;99.90;;;;;;4938172;29;20223;-76
2023/04/01 04:15:11;;;;;;;7.90;7.50;;;7.10;99.90;;;;;;4936269;29;20205;-75
2023/04/01 04:17:38;;;;;;;8.40;8.00;;;7.10;99.90;;;;;;4941396;29;20197;-76
2023/04/01 04:20:06;;;;;;;8.50;8.00;;;7.20;99.90;;;;;;4942766;29;20206;-75
2023/04/01 04:22:33;;;;;;;8.93;8.43;;;7.20;99.90;;;;;;4948102;29;20647;-75
2023/04/01 04:25:00;;;;;;;8.80;8.30;;;7.10;99.90;;;;;;4945603;29;20211;-76
2023/04/01 04:27:27;;;;;;;8.80;8.30;;;7.20;99.90;;;;;;4934926;29;20205;-75
2023/04/01 04:30:06;;;;;;;8.93;8.43;;;7.20;99.90;;;;;;4943366;29;20209;-76
2023/04/01 04:32:34;;;;;;;9.43;8.70;;;7.20;99.90;;;;;;4947947;29;20232;-75
2023/04/01 04:35:01;;;;;;;9.00;8.50;;;7.20;99.90;;;;;;4946058;29;20197;-75
2023/04/01 04:37:28;;;;;;;8.93;8.40;;;7.20;99.90;;;;;;4938608;29;20225;-76
2023/04/01 04:39:55;;;;;;;9.37;8.77;;;7.20;99.90;;;;;;4937889;29;20213;-76
2023/04/01 04:42:22;;;;;;;9.07;8.47;;;7.20;99.90;;;;;;4936087;29;20223;-77
2023/04/01 04:44:50;;;;;;;8.70;8.20;;;7.20;99.90;;;;;;4944870;29;20228;-76
2023/04/01 04:47:18;;;;;;;9.40;8.80;;;7.20;99.90;;;;;;4942375;29;20693;-76
2023/04/01 04:49:45;;;;;;;9.23;8.63;;;7.30;99.90;;;;;;4945894;29;20211;-75
2023/04/01 04:52:13;;;;;;;9.37;8.80;;;7.30;99.90;;;;;;4948536;29;20219;-76
2023/04/01 04:54:39;;;;;;;9.80;9.17;;;7.40;99.90;;;;;;4942555;29;20210;-76
2023/04/01 04:57:06;;;;;;;9.40;8.90;;;7.40;99.90;;;;;;4940952;29;20738;-76
2023/04/01 04:59:40;;;;;;;10.00;9.40;;;7.50;99.90;;;;;;4940193;29;20197;-75
2023/04/01 05:02:12;;;;;;;9.70;9.00;;;7.50;99.90;;;;;;4943124;29;20707;-76
2023/04/01 05:04:40;;;;;;;9.20;8.70;;;7.50;99.90;;;;;;4947593;28;20199;-75
2023/04/01 05:07:10;;;;;;;9.30;8.60;;;7.50;99.90;;;;;;4944074;29;20200;-76
2023/04/01 05:09:37;;;;;;;9.00;8.50;;;7.60;99.90;;;;;;4949538;29;20215;-76
2023/04/01 05:12:04;;;;;;;8.70;8.20;;;7.60;99.90;;;;;;4948912;29;20222;-75
2023/04/01 05:14:51;;;;;;;8.53;8.07;;;7.70;99.90;;;;;;4946978;29;20194;-76
2023/04/01 05:17:18;;;;;;;8.80;8.30;;;7.80;99.90;;;;;;4939355;29;20273;-76
2023/04/01 05:19:46;;;;;;;10.07;9.47;;;7.80;99.90;;;;;;4948057;29;20310;-75
2023/04/01 05:22:13;;;;;;;8.40;7.90;;;7.80;99.90;;;;;;4946948;28;20580;-76
2023/04/01 05:24:41;;;;;;;9.20;8.70;;;7.90;99.90;;;;;;4948795;29;20191;-76
2023/04/01 05:27:07;;;;;;;9.60;9.00;;;8.00;99.90;;;;;;4943739;29;20303;-76
2023/04/01 05:29:38;;;;;;;9.20;8.70;;;8.10;99.90;;;;;;4944462;29;20201;-77
2023/04/01 05:32:08;;;;;;;9.10;8.50;;;8.10;99.90;;;;;;4942847;29;20223;-77
2023/04/01 05:34:36;;;;;;;9.30;8.70;;;8.20;99.90;;;;;;4930965;29;20203;-77
2023/04/01 05:37:04;;;;;;;9.30;8.80;;;8.30;99.90;;;;;;4943549;29;20273;-76
2023/04/01 05:39:31;;;;;;;9.00;8.50;;;8.40;99.90;;;;;;4943090;29;20210;-76
2023/04/01 05:41:58;;;;;;;8.83;8.33;;;8.40;99.90;;;;;;4944929;29;20597;-76
2023/04/01 05:44:25;;;;;;;8.93;8.30;;;8.60;99.90;;;;;;4950523;29;20207;-77
2023/04/01 05:47:24;;;;;;;8.20;7.80;;;8.70;99.90;;;;;;4937368;28;20225;-77
2023/04/01 05:49:51;;;;;;;7.40;7.00;;;8.80;99.90;;;;;;4943572;29;20199;-77
2023/04/01 05:52:20;;;;;;;7.50;7.10;;;9.00;99.90;;;;;;4940914;29;20231;-79
2023/04/01 05:54:46;;;;;;;1.90;1.80;;;9.30;99.90;;;;;;4945607;29;20201;-78
2023/04/01 05:57:13;;;;;;;1.90;1.80;;;9.50;99.90;;;;;;4947917;29;20224;-75
2023/04/01 05:59:40;;;;;;;6.07;5.77;;;9.60;99.90;;;;;;4953891;29;20198;-76
2023/04/01 06:02:09;;;;;;;2.20;2.00;;;9.60;99.90;;;;;;4949088;29;20273;-76
2023/04/01 06:04:39;;;;;;;8.23;7.73;;;9.80;99.90;;;;;;4944257;28;20581;-76
2023/04/01 06:07:12;;;;;;;8.27;7.77;;;9.90;99.90;;;;;;4943867;29;20186;-77
2023/04/01 06:09:41;;;;;;;8.83;8.20;;;10.00;99.90;;;;;;4931730;29;20569;-76
2023/04/01 06:12:24;;;;;;;8.17;7.70;;;10.00;99.90;;;;;;4941488;29;20227;-76
2023/04/01 06:15:11;;;;;;;7.10;6.70;;;10.20;99.90;;;;;;4948938;29;20869;-76
2023/04/01 06:17:52;;;;;;;5.70;5.37;;;10.40;99.90;;;;;;4946523;29;20231;-76
2023/04/01 06:20:25;;;;;;;4.90;4.70;;;10.60;99.90;;;;;;4943879;29;20237;-76
2023/04/01 06:23:26;;;;;;;4.40;4.10;;;10.70;99.90;;;;;;4938676;29;20216;-76
2023/04/01 06:26:20;;;;;;;2.37;2.20;;;10.80;99.90;;;;;;4938246;29;20198;-77
2023/04/01 06:29:29;;;;;;;4.47;4.17;;;11.00;99.90;;;;;;4943002;29;20203;-78
2023/04/01 06:32:17;;;;;;;7.13;6.63;;;11.10;99.90;;;;;;4952547;28;20278;-80
2023/04/01 06:34:59;;;;;;;7.40;6.90;;;11.20;99.90;;;;;;4959769;28;20292;-78
2023/04/01 06:37:47;;;;;;;6.77;6.37;;;11.10;99.90;;;;;;4941932;29;20229;-77
2023/04/01 06:40:40;;;;;;;7.77;7.27;;;11.00;99.90;;;;;;4948297;29;20221;-77
2023/04/01 06:43:17;;;;;;;6.80;6.33;;;11.00;99.90;;;;;;4939661;29;20224;-77
2023/04/01 06:46:12;;;;;;;6.00;5.60;;;10.90;99.90;;;;;;4948079;29;20206;-78
2023/04/01 06:49:13;;;;;;;5.90;5.53;;;10.80;99.90;;;;;;4938261;29;20706;-77
2023/04/01 06:52:04;;;;;;;7.10;6.70;;;10.70;99.90;;;;;;4920116;29;20246;-77
2023/04/01 06:55:13;;;;;;;7.67;7.27;;;10.70;99.90;;;;;;4913103;29;20209;-76
2023/04/01 06:58:06;;;;;;;9.73;9.03;;;10.70;99.90;;;;;;4934717;29;20294;-75
2023/04/01 07:00:37;;;;;;;8.00;7.60;;;10.70;99.90;;;;;;4933446;29;20201;-76
2023/04/01 07:03:14;;;;;;;7.90;7.50;;;10.60;99.90;;;;;;4944550;29;20580;-76
2023/04/01 07:05:43;;;;;;;8.00;7.40;;;10.60;99.90;;;;;;4943982;29;20209;-76
2023/04/01 07:08:14;;;;;;;7.80;7.30;;;10.70;99.90;;;;;;4947385;29;20197;-76
2023/04/01 07:10:46;;;;;;;8.10;7.60;;;10.70;99.90;;;;;;4944914;29;20267;-78
2023/04/01 07:13:40;;;;;;;3.17;1.80;;;10.80;99.90;;;;;;4944989;28;20695;-76
2023/04/01 07:16:20;;;;;;;2.40;2.20;;;10.80;99.90;;;;;;4946617;28;20232;-76
2023/04/01 07:18:51;;;;;;;2.10;1.93;;;10.80;99.90;;;;;;4944442;29;20235;-76
2023/04/01 07:21:27;;;;;;;2.10;1.90;;;10.90;99.90;;;;;;4933526;29;20229;-76
2023/04/01 07:24:02;;;;;;;2.07;1.90;;;10.90;99.90;;;;;;4945096;29;20206;-76
2023/04/01 07:26:59;;;;;;;2.10;2.00;;;11.00;99.90;;;;;;4918418;29;20231;-78
2023/04/01 07:29:28;;;;;;;2.80;2.07;;;11.00;99.90;;;;;;4944270;29;20297;-77
2023/04/01 07:32:16;;;;;;;2.03;1.83;;;11.00;99.90;;;;;;4956984;28;20231;-76
2023/04/01 07:34:56;;;;;;;2.07;1.80;;;11.00;99.90;;;;;;4935786;29;20810;-76
2023/04/01 07:37:32;;;;;;;2.43;2.10;;;11.00;99.90;;;;;;4940463;29;20230;-77
2023/04/01 07:40:13;;;;;;;2.13;1.97;;;11.00;99.90;;;;;;4940105;29;20203;-76
2023/04/01 07:42:56;;;;;;;2.13;2.00;;;11.10;99.90;;;;;;4939509;29;20227;-76
2023/04/01 07:45:30;;;;;;;2.33;1.80;;;11.10;99.90;;;;;;4948530;29;20205;-78
2023/04/01 07:48:10;;;;;;;2.10;1.90;;;11.00;99.90;;;;;;4938291;29;20199;-76
2023/04/01 07:50:43;;;;;;;7.90;7.30;;;11.00;99.90;;;;;;4953270;29;20204;-77
2023/04/01 07:53:19;;;;;;;8.13;7.53;;;11.00;99.90;;;;;;4950206;28;20329;-77
2023/04/01 07:55:54;;;;;;;2.37;2.10;;;11.00;99.90;;;;;;4940486;29;20197;-77
2023/04/01 07:58:29;;;;;;;2.27;1.97;;;11.10;99.90;;;;;;4938974;28;20232;-76
2023/04/01 08:01:02;;;;;;;5.30;5.00;;;11.20;99.90;;;;;;4941849;29;20229;-76
2023/04/01 08:03:52;;;;;;;6.20;5.80;;;11.20;99.90;;;;;;4937933;29;20208;-77
2023/04/01 08:06:25;;;;;;;6.40;6.00;;;11.20;99.90;;;;;;4936503;29;20233;-77
2023/04/01 08:09:02;;;;;;;7.20;6.80;;;11.20;99.90;;;;;;4947926;29;20677;-77
2023/04/01 08:12:01;;;;;;;7.43;7.03;;;11.30;99.90;;;;;;4936175;29;20232;-77
2023/04/01 08:14:56;;;;;;;8.63;7.90;;;11.30;99.90;;;;;;4928758;29;20275;-76
2023/04/01 08:17:45;;;;;;;8.10;7.60;;;11.20;99.90;;;;;;4946836;29;20257;-76
2023/04/01 08:20:28;;;;;;;7.70;7.30;;;11.10;99.90;;;;;;4943045;29;20208;-80
2023/04/01 08:23:01;;;;;;;8.07;7.57;;;11.10;99.90;;;;;;4940206;28;20211;-77
2023/04/01 08:25:38;;;;;;;8.00;7.60;;;11.10;99.90;;;;;;4929829;29;20214;-76
2023/04/01 08:28:14;;;;;;;7.55;7.13;;;11.00;99.90;;;;;;4917681;29;20458;-75
2023/04/01 08:30:44;;;;;;;8.30;7.80;;;10.90;99.90;;;;;;4935306;29;20210;-76
2023/04/01 08:33:16;;;;;;;8.37;7.77;;;10.90;99.90;;;;;;4938167;29;20197;-76
2023/04/01 08:35:51;;;;;;;7.70;7.30;;;11.00;99.90;;;;;;4940356;29;20202;-77
2023/04/01 08:38:22;;;;;;;8.00;7.40;;;11.00;99.90;;;;;;4947286;29;20705;-78
2023/04/01 08:41:15;;;;;;;7.80;7.40;;;11.00;99.90;;;;;;4943635;29;20225;-77
2023/04/01 08:44:27;;;;;;;7.67;7.10;;;11.10;99.90;;;;;;4944057;29;20199;-78
2023/04/01 08:47:19;;;;;;;7.50;7.10;;;11.10;99.90;;;;;;4942579;29;20238;-77
2023/04/01 08:50:08;;;;;;;7.93;7.43;;;11.10;99.90;;;;;;4939063;29;20235;-76
2023/04/01 08:52:59;;;;;;;7.80;7.40;;;11.10;99.90;;;;;;4927872;29;20206;-75
2023/04/01 08:55:37;;;;;;;7.33;7.00;;;11.00;99.90;;;;;;4933444;29;20210;-76
2023/04/01 08:58:53;;;;;;;7.60;7.10;;;10.90;99.90;;;;;;4942584;29;20225;-76
2023/04/01 09:01:43;;;;;;;7.43;7.07;;;10.90;99.90;;;;;;4944484;29;20237;-78
2023/04/01 09:04:46;;;;;;;7.53;7.13;;;10.90;99.90;;;;;;4932760;29;20207;-76
2023/04/01 09:07:27;;;;;;;7.67;7.27;;;10.90;99.90;;;;;;4925788;29;20210;-76
2023/04/01 09:10:25;;;;;;;7.40;7.00;;;10.90;99.90;;;;;;4930031;29;20204;-76
2023/04/01 09:13:24;;;;;;;7.60;7.20;;;10.80;99.90;;;;;;4948451;28;20208;-75
2023/04/01 09:16:27;;;;;;;7.80;7.40;;;10.80;99.90;;;;;;4927271;29;20293;-76
2023/04/01 09:19:31;;;;;;;8.00;7.50;;;10.90;99.90;;;;;;4931245;29;20226;-78
2023/04/01 09:22:37;;;;;;;8.20;7.70;;;10.90;99.90;;;;;;4922798;29;20221;-77
2023/04/01 09:25:31;;;;;;;8.57;8.07;;;11.10;99.90;;;;;;4936601;29;20304;-75
2023/04/01 09:28:09;;;;;;;8.77;8.27;;;11.30;99.90;;;;;;4943636;29;20208;-76
2023/04/01 09:31:01;;;;;;;8.30;7.90;;;11.50;99.90;;;;;;4938750;29;20210;-76
2023/04/01 09:34:04;;;;;;;8.50;8.10;;;11.60;99.90;;;;;;4951363;29;20209;-76
2023/04/01 09:36:56;;;;;;;7.70;7.30;;;11.90;99.90;;;;;;4946694;29;20201;-77
2023/04/01 09:39:36;;;;;;;7.90;7.50;;;11.90;99.90;;;;;;4948919;28;20688;-79
2023/04/01 09:42:24;;;;;;;8.20;7.70;;;11.80;99.90;;;;;;4943948;29;20822;-78
2023/04/01 09:45:10;;;;;;;7.90;7.50;;;11.70;99.90;;;;;;4936189;29;20237;-82
2023/04/01 09:47:56;;;;;;;8.00;7.60;;;11.60;99.90;;;;;;4953523;29;20207;-78
2023/04/01 09:50:35;;;;;;;8.20;7.67;;;11.60;99.90;;;;;;4944105;29;20206;-78
2023/04/01 09:53:19;;;;;;;8.43;7.93;;;11.50;99.90;;;;;;4941582;28;20199;-78
2023/04/01 09:56:34;;;;;;;8.50;7.90;;;11.30;99.90;;;;;;4929255;29;20854;-78
2023/04/01 09:59:48;;;;;;;8.70;8.20;;;11.20;99.90;;;;;;4931548;29;20456;-79
2023/04/01 10:02:56;;;;;;;8.77;8.13;;;11.30;99.90;;;;;;4942723;29;20596;-80
2023/04/01 10:06:03;;;;;;;9.13;8.53;;;11.40;99.90;;;;;;4934533;29;20230;-77
2023/04/01 10:08:51;;;;;;;9.13;8.60;;;11.80;99.90;;;;;;4939511;29;20576;-78
2023/04/01 10:11:59;;;;;;;8.90;8.40;;;12.10;99.90;;;;;;4950519;29;20253;-81
2023/04/01 10:15:00;;;;;;;8.70;8.30;;;12.20;99.90;;;;;;4971618;28;20202;-77
2023/04/01 10:18:03;;;;;;;8.60;8.10;;;12.10;99.90;;;;;;4948243;29;20222;-77
2023/04/01 10:20:56;;;;;;;8.00;7.60;;;11.90;99.90;;;;;;4930071;29;20246;-78
2023/04/01 10:23:39;;;;;;;7.50;7.10;;;11.60;99.90;;;;;;4947798;29;20780;-77
2023/04/01 10:26:43;;;;;;;7.80;7.13;;;11.50;99.90;;;;;;4945379;29;20206;-77
2023/04/01 10:29:52;;;;;;;7.53;7.03;;;11.30;99.90;;;;;;4956267;28;20211;-77
2023/04/01 10:32:46;;;;;;;8.23;7.73;;;11.10;99.90;;;;;;4940808;29;20723;-76
2023/04/01 10:36:01;;;;;;;8.40;7.90;;;11.10;99.90;;;;;;4940115;29;20278;-76
2023/04/01 10:39:01;;;;;;;8.20;7.77;;;11.00;99.90;;;;;;4902614;29;20233;-77
2023/04/01 10:41:58;;;;;;;7.60;7.20;;;11.00;99.90;;;;;;4948799;29;20226;-77
2023/04/01 10:45:29;;;;;;;8.17;7.67;;;11.00;99.90;;;;;;4893502;29;20243;-79
2023/04/01 10:48:33;;;;;;;8.50;7.90;;;11.10;99.90;;;;;;4932385;29;20207;-78
2023/04/01 10:51:16;;;;;;;8.17;7.67;;;11.20;99.90;;;;;;4934661;29;20324;-78
2023/04/01 10:54:19;;;;;;;7.77;7.37;;;11.30;99.90;;;;;;4940707;29;20225;-77
2023/04/01 10:57:44;;;;;;;8.40;7.90;;;11.40;99.90;;;;;;4931873;29;20251;-78
2023/04/01 11:01:04;;;;;;;8.17;7.67;;;11.50;99.90;;;;;;4947180;29;20237;-78
2023/04/01 11:04:29;;;;;;;8.07;7.57;;;11.70;99.90;;;;;;4922178;29;20703;-78
2023/04/01 11:07:52;;;;;;;7.60;7.20;;;11.90;99.90;;;;;;4946417;29;20197;-79
2023/04/01 11:10:50;;;;;;;8.60;8.10;;;12.10;99.90;;;;;;4934235;29;20214;-77
2023/04/01 11:13:44;;;;;;;8.00;7.60;;;12.00;99.90;;;;;;4940850;29;20748;-77
2023/04/01 11:16:39;;;;;;;8.50;8.00;;;11.90;99.90;;;;;;4940178;29;20195;-76
2023/04/01 11:19:42;;;;;;;7.87;7.47;;;11.90;99.90;;;;;;4939066;29;20246;-77
2023/04/01 11:22:26;;;;;;;7.90;7.50;;;11.90;99.90;;;;;;4921060;29;20222;-77
2023/04/01 11:25:20;;;;;;;7.70;7.30;;;11.90;99.90;;;;;;4927688;29;20703;-78
2023/04/01 11:28:38;;;;;;;8.35;7.85;;;12.20;99.90;;;;;;4937130;29;20489;-77
2023/04/01 11:31:42;;;;;;;5.00;4.70;;;12.30;99.90;;;;;;4936193;29;20225;-78
2023/04/01 11:34:21;;;;;;;2.35;2.25;;;12.20;99.90;;;;;;4926354;29;20951;-78
2023/04/01 11:36:59;;;;;;;8.10;7.70;;;12.20;99.90;;;;;;4932326;29;20586;-78
2023/04/01 11:39:35;;;;;;;7.90;7.50;;;12.20;99.90;;;;;;4942884;29;20218;-78
2023/04/01 11:42:16;;;;;;;8.10;7.60;;;12.10;99.90;;;;;;4941634;28;20732;-77
2023/04/01 11:45:16;;;;;;;8.10;7.60;;;12.00;99.90;;;;;;4940438;29;20216;-77
2023/04/01 11:47:56;;;;;;;8.03;7.63;;;11.90;99.90;;;;;;4947196;29;20202;-77
2023/04/01 11:50:32;;;;;;;8.93;8.43;;;11.90;99.90;;;;;;4938120;29;20203;-77
2023/04/01 11:53:19;;;;;;;7.00;6.60;;;12.00;99.90;;;;;;4935233;29;20191;-78
2023/04/01 11:56:03;;;;;;;6.97;6.60;;;12.30;99.90;;;;;;4948644;29;20294;-79
2023/04/01 11:59:27;;;;;;;8.50;8.00;;;12.50;99.90;;;;;;4946291;29;20369;-82
2023/04/01 12:02:04;;;;;;;7.90;7.50;;;12.80;99.90;;;;;;4918083;29;20234;-82
2023/04/01 12:05:07;;;;;;;6.27;5.97;;;13.10;99.90;;;;;;4944536;29;20205;-82
2023/04/01 12:08:05;;;;;;;4.97;4.67;;;13.30;99.90;;;;;;4915453;29;20203;-78
2023/04/01 12:10:40;;;;;;;9.13;8.63;;;13.40;99.90;;;;;;4908339;29;20218;-78
2023/04/01 12:13:17;;;;;;;9.20;8.60;;;13.40;99.90;;;;;;4948838;29;20199;-78
2023/04/01 12:15:57;;;;;;;6.23;5.80;;;13.30;99.90;;;;;;4943549;28;20199;-79
2023/04/01 12:18:34;;;;;;;4.77;4.47;;;13.30;99.90;;;;;;4949397;29;20216;-79
2023/04/01 12:21:08;;;;;;;7.97;7.47;;;13.10;99.90;;;;;;4937280;29;20215;-78
2023/04/01 12:24:06;;;;;;;8.33;7.87;;;12.90;99.90;;;;;;4934285;29;20204;-77
2023/04/01 12:26:44;;;;;;;7.50;7.10;;;12.90;99.90;;;;;;4932965;29;20563;-79
2023/04/01 12:29:45;;;;;;;7.40;7.00;;;12.90;99.90;;;;;;4932804;28;20227;-80
2023/04/01 12:32:23;;;;;;;8.80;8.30;;;12.80;99.90;;;;;;4947942;29;20249;-78
2023/04/01 12:35:16;;;;;;;8.63;8.13;;;12.70;99.90;;;;;;4938626;29;20199;-78
2023/04/01 12:37:51;;;;;;;7.40;7.00;;;12.70;99.90;;;;;;4938038;29;20661;-79
2023/04/01 12:40:29;;;;;;;7.30;6.80;;;12.80;99.90;;;;;;4948487;28;20257;-79
2023/04/01 12:43:07;;;;;;;7.30;6.90;;;12.90;99.90;;;;;;4937896;29;20206;-78
2023/04/01 12:45:35;;;;;;;7.47;7.07;;;13.00;99.90;;;;;;4948854;29;20230;-78
2023/04/01 12:48:35;;;;;;;7.40;7.00;;;13.10;99.90;;;;;;4944007;28;20265;-77
2023/04/01 12:51:37;;;;;;;7.40;7.00;;;13.20;99.90;;;;;;4938324;29;20226;-79
2023/04/01 12:54:28;;;;;;;7.30;6.90;;;13.10;99.90;;;;;;4935240;29;20198;-78
2023/04/01 12:57:09;;;;;;;7.27;6.77;;;13.30;99.90;;;;;;4944114;29;20261;-79
2023/04/01 13:00:03;;;;;;;7.00;6.70;;;13.10;99.90;;;;;;4951777;28;20226;-79
2023/04/01 13:02:47;;;;;;;7.20;6.90;;;13.10;99.90;;;;;;4933108;29;20282;-79
2023/04/01 13:05:32;;;;;;;7.40;7.00;;;13.30;99.90;;;;;;4942327;29;20212;-80
2023/04/01 13:08:17;;;;;;;6.83;6.53;;;13.40;99.90;;;;;;4933838;29;20594;-79
2023/04/01 13:11:03;;;;;;;7.40;7.00;;;13.40;99.90;;;;;;4947451;28;20244;-79
2023/04/01 13:14:05;;;;;;;7.70;7.30;;;13.50;99.90;;;;;;4944936;28;20206;-80
2023/04/01 13:16:38;;;;;;;7.17;6.77;;;13.50;99.90;;;;;;4922805;29;20210;-78
2023/04/01 13:19:09;;;;;;;7.50;7.00;;;13.50;99.90;;;;;;4941881;29;20220;-80
2023/04/01 13:21:52;;;;;;;7.00;6.60;;;13.40;99.90;;;;;;4951811;29;20227;-80
2023/04/01 13:24:30;;;;;;;7.00;6.60;;;13.40;99.90;;;;;;4940965;28;20283;-80
2023/04/01 13:27:07;;;;;;;6.90;6.50;;;13.50;99.90;;;;;;4942234;29;20290;-79
2023/04/01 13:29:37;;;;;;;6.80;6.47;;;13.50;99.90;;;;;;4943291;29;20198;-77
2023/04/01 13:32:20;;;;;;;6.90;6.53;;;13.60;99.90;;;;;;4947984;29;20214;-81
2023/04/01 13:35:11;;;;;;;6.93;6.63;;;13.80;99.90;;;;;;4936494;29;20208;-78
2023/04/01 13:37:53;;;;;;;6.80;6.50;;;13.80;99.90;;;;;;4942819;29;20209;-79
2023/04/01 13:40:37;;;;;;;7.00;6.70;;;13.80;99.90;;;;;;4942204;29;20194;-79
2023/04/01 13:43:11;;;;;;;7.03;6.53;;;13.80;99.90;;;;;;4941308;29;20200;-79
2023/04/01 13:45:49;;;;;;;7.20;6.80;;;13.70;99.90;;;;;;4946710;29;20200;-80
2023/04/01 13:48:31;;;;;;;7.00;6.60;;;13.50;99.90;;;;;;4950309;29;20194;-78
2023/04/01 13:51:24;;;;;;;7.07;6.77;;;13.40;99.90;;;;;;4935134;29;20218;-79
2023/04/01 13:54:10;;;;;;;6.83;6.53;;;13.20;99.90;;;;;;4950887;29;20199;-79
2023/04/01 13:56:49;;;;;;;7.10;6.70;;;13.20;99.90;;;;;;4940378;29;20212;-80
2023/04/01 13:59:41;;;;;;;7.20;6.80;;;13.20;99.90;;;;;;4948682;29;20274;-79
2023/04/01 14:02:35;;;;;;;6.90;6.50;;;13.20;99.90;;;;;;4939513;29;20249;-77
2023/04/01 14:05:24;;;;;;;7.07;6.67;;;13.20;99.90;;;;;;4931159;29;20203;-78
2023/04/01 14:08:00;;;;;;;7.67;7.27;;;13.20;99.90;;;;;;4931177;29;20258;-79
2023/04/01 14:10:35;;;;;;;7.40;7.00;;;13.10;99.90;;;;;;4928512;29;20630;-79
2023/04/01 14:13:13;;;;;;;7.40;7.00;;;13.00;99.90;;;;;;4930933;29;20194;-79
2023/04/01 14:15:51;;;;;;;7.40;7.00;;;12.90;99.90;;;;;;4945992;29;20222;-79
2023/04/01 14:18:42;;;;;;;7.20;6.80;;;12.90;99.90;;;;;;4942254;29;20223;-79
2023/04/01 14:21:20;;;;;;;7.00;6.60;;;13.10;99.90;;;;;;4939200;29;20277;-79
2023/04/01 14:26:36;;;;;;;7.10;6.80;;;12.90;99.90;;;;;;4973865;23;20234;-80
2023/04/01 14:29:19;;;;;;;7.20;6.80;;;12.90;99.90;;;;;;4961111;28;20295;-79
2023/04/01 14:32:03;;;;;;;7.40;7.00;;;12.90;99.90;;;;;;4961952;28;20194;-80
2023/04/01 14:34:42;;;;;;;7.13;6.73;;;12.80;99.90;;;;;;4958700;28;20222;-80
2023/04/01 14:37:28;;;;;;;7.60;7.20;;;12.90;99.90;;;;;;4948777;28;20210;-79
2023/04/01 14:40:21;;;;;;;7.20;6.80;;;12.90;99.90;;;;;;4952830;28;20218;-78
2023/04/01 14:43:26;;;;;;;7.00;6.70;;;12.90;99.90;;;;;;4968695;28;20199;-79
2023/04/01 14:46:35;;;;;;;6.90;6.60;;;12.70;99.90;;;;;;4953233;28;20250;-79
2023/04/01 14:49:15;;;;;;;7.20;6.80;;;12.70;99.90;;;;;;4946368;28;20194;-80
2023/04/01 14:51:42;;;;;;;7.40;6.90;;;12.70;99.90;;;;;;4959515;28;20212;-79
2023/04/01 14:54:22;;;;;;;7.03;6.70;;;12.70;99.90;;;;;;4952516;29;20202;-80
2023/04/01 14:56:50;;;;;;;7.17;6.83;;;12.80;99.90;;;;;;4954481;28;20234;-80
2023/04/01 14:59:30;;;;;;;7.10;6.70;;;12.90;99.90;;;;;;4958480;28;20628;-78
2023/04/01 15:02:07;;;;;;;6.80;6.50;;;12.90;99.90;;;;;;4949056;28;20563;-79
2023/04/01 15:04:51;;;;;;;7.00;6.60;;;12.80;99.90;;;;;;4968675;28;20234;-79
2023/04/01 15:07:42;;;;;;;6.90;6.50;;;12.80;99.90;;;;;;4959135;28;20614;-79
2023/04/01 15:10:20;;;;;;;6.97;6.57;;;12.80;99.90;;;;;;4941831;28;20253;-78
2023/04/01 15:12:58;;;;;;;6.97;6.57;;;12.80;99.90;;;;;;4950943;28;20289;-79
2023/04/01 15:15:36;;;;;;;7.10;6.70;;;12.70;99.90;;;;;;4943215;28;20322;-79
2023/04/01 15:18:13;;;;;;;6.90;6.50;;;12.80;99.90;;;;;;4954694;28;20207;-79
2023/04/01 15:21:08;;;;;;;6.80;6.40;;;12.70;99.90;;;;;;4951013;28;20592;-78
2023/04/01 15:23:50;;;;;;;6.90;6.50;;;12.70;99.90;;;;;;4950979;28;20221;-78
2023/04/01 15:26:48;;;;;;;7.03;6.53;;;12.70;99.90;;;;;;4952965;28;20216;-79
2023/04/01 15:29:42;;;;;;;7.10;6.70;;;12.60;99.90;;;;;;4944693;28;20203;-78
2023/04/01 15:32:18;;;;;;;7.00;6.60;;;12.50;99.90;;;;;;4948260;28;20203;-79
2023/04/01 15:34:58;;;;;;;6.93;6.53;;;12.50;99.90;;;;;;4963760;28;20710;-79
2023/04/01 15:37:38;;;;;;;6.77;6.43;;;12.60;99.90;;;;;;4959865;28;20690;-79
2023/04/01 15:40:18;;;;;;;7.17;6.80;;;12.50;99.90;;;;;;4952062;28;20780;-79
2023/04/01 15:42:59;;;;;;;6.73;6.43;;;12.40;99.90;;;;;;4957856;28;20688;-79
2023/04/01 15:45:43;;;;;;;6.93;6.53;;;12.20;99.90;;;;;;4952255;28;20272;-80
2023/04/01 15:48:32;;;;;;;7.27;6.87;;;12.20;99.90;;;;;;4970687;28;20201;-82
2023/04/01 15:51:18;;;;;;;7.27;6.87;;;12.20;99.90;;;;;;4964617;28;20748;-78
2023/04/01 15:54:09;;;;;;;7.33;6.93;;;12.10;99.90;;;;;;4962390;28;20586;-79
2023/04/01 15:57:04;;;;;;;7.30;6.90;;;12.00;99.90;;;;;;4967926;28;20327;-78
2023/04/01 15:59:55;;;;;;;6.83;6.53;;;11.90;99.90;;;;;;4950569;28;20217;-78
2023/04/01 16:02:30;;;;;;;7.30;6.90;;;11.80;99.90;;;;;;4951897;28;20241;-82
2023/04/01 16:05:01;;;;;;;7.60;7.10;;;11.70;99.90;;;;;;4950186;28;20315;-82
2023/04/01 16:08:04;;;;;;;7.60;7.20;;;11.60;99.90;;;;;;4961461;28;20236;-77